Badger Spring Valley, Nevada Weather observations

Data are for 10 minute period ending at time listed.
 Day   Time   Solar   Ave.   Ave.  Ave.  Vector  Max.   Baro.   Total    
  of    of     Rad.   Air    Rel.  Wind   Wind   Wind  Press.  Precip.   
Year   Day            Temp.  Hum.  Speed  Dir.   Gust                    
2015   (PST)  Kw/m2    F      %     mph   deg.    mph    mb.     in.     
-------------------------------------------------------------------------
  91    1:20   0.00   56.6     9    9.9   360    17.6   826.8    0.00 
  91    1:30   0.00   56.5     9    9.9   357    19.9   826.8    0.00 
  91    1:40   0.00   55.1    10    6.9   333    14.5   826.9    0.00 
  91    1:50   0.00   53.7    10    6.1   334    10.7   827.0    0.00 
  91    2:00   0.00   53.7    10    6.3   315    12.9   827.0    0.00 
  91    2:10   0.00   53.2    11    9.5   333    20.9   827.0    0.00 
  91    2:20   0.00   52.5    11   11.3   336    24.0   826.9    0.00 
  91    2:30   0.00   51.9    12    9.7   329    17.1   827.0    0.00 
  91    2:40   0.00   51.2    12   10.4   343    16.5   827.1    0.00 
  91    2:50   0.00   49.8    14   12.5   349    18.3   827.1    0.00 
  91    3:00   0.00   49.4    15   12.9   343    19.2   827.0    0.00 
  91    3:10   0.00   49.0    16   13.3   340    23.3   826.9    0.00 
  91    3:20   0.00   48.9    18   16.3   336    27.0   826.9    0.00 
  91    3:30   0.00   48.4    22   17.4   335    27.2   826.9    0.00 
  91    3:40   0.00   48.0    24   16.9   333    28.2   827.1    0.00 
  91    3:50   0.00   47.7    26   15.0   332    24.6   827.2    0.00 
  91    4:00   0.00   47.2    28   12.2   335    21.0   827.4    0.00 
  91    4:10   0.00   46.9    29   14.5   338    23.1   827.4    0.00 
  91    4:20   0.00   46.4    30   12.7   338    23.5   827.5    0.00 
  91    4:30   0.00   45.9    32   10.9   334    21.9   827.8    0.00 
  91    4:40   0.00   45.5    32    7.8   334    15.9   828.1    0.00 
  91    4:50   0.00   45.2    33    8.1   331    16.0   828.2    0.00 
  91    5:00   0.00   44.7    34    7.5   339    15.3   828.3    0.00 
  91    5:10   0.00   44.0    35    7.6   349    14.3   828.3    0.00 
  91    5:20   0.00   43.6    36    9.0   342    16.1   828.3    0.00 
  91    5:30   0.00   43.8    36   12.6   346    22.2   828.3    0.00 
  91    5:40   0.01   44.0    35   17.4   344    30.2   828.3    0.00 
  91    5:50   0.04   44.0    35   19.4   345    29.8   828.5    0.00 
  91    6:00   0.06   44.0    35   18.0   348    27.8   828.8    0.00 
  91    6:10   0.10   44.2    35   14.0   347    22.4   828.9    0.00 
  91    6:20   0.06   43.6    36   13.4   340    23.8   829.0    0.00 
  91    6:30   0.06   43.3    36   16.6   344    25.5   829.1    0.00 
  91    6:40   0.14   43.7    36   15.8   351    24.1   829.3    0.00 
  91    6:50   0.24   44.5    34   14.7   346    24.0   829.4    0.00 
  91    7:00   0.28   45.1    33   17.4   348    27.9   829.5    0.00 
  91    7:10   0.33   45.6    33   18.0   350    27.6   829.5    0.00 
  91    7:20   0.37   45.7    33   18.1   358    24.0   829.6    0.00 
  91    7:30   0.41   45.8    33   16.8   356    25.6   829.8    0.00 
  91    7:40   0.45   46.1    32   16.8   355    24.1   829.8    0.00 
  91    7:50   0.49   46.4    31   15.4   350    24.9   830.0    0.00 
  91    8:00   0.53   47.3    29   14.5   356    21.7   830.2    0.00 
  91    8:10   0.57   47.6    29   15.9   351    25.4   830.3    0.00 
  91    8:20   0.61   47.6    29   15.8   352    22.7   830.4    0.00 
  91    8:30   0.65   48.2    29   16.6   355    22.8   830.4    0.00 
  91    8:40   0.69   48.8    28   17.0   354    25.1   830.4    0.00 
  91    8:50   0.72   49.3    27   16.1   358    23.8   830.5    0.00 
  91    9:00   0.76   48.8    27   17.6   355    23.5   830.3    0.00 
  91    9:10   0.79   49.3    27   16.2   346    24.5   830.3    0.00 
  91    9:20   0.82   50.2    26   13.5     0    21.5   830.2    0.00 
  91    9:30   0.85   50.5    25   14.2   358    20.5   830.3    0.00 
  91    9:40   0.88   51.1    24   13.8   353    20.5   830.3    0.00 
  91    9:50   0.90   51.8    23   12.3    19    23.5   830.3    0.00 
  91   10:00   0.92   51.7    23   10.8   357    17.8   830.2    0.00 
  91   10:10   0.93   52.3    22    9.2   358    15.4   830.2    0.00 
  91   10:20   0.97   53.1    20    9.2   356    17.5   830.2    0.00 
  91   10:30   0.98   53.9    19   11.9   359    18.6   830.2    0.00 
  91   10:40   0.99   54.2    19   11.6    16    17.0   830.1    0.00 
  91   10:50   0.99   54.5    18   11.9    25    19.6   829.9    0.00 
  91   11:00   1.02   55.0    16   10.0     2    16.1   829.9    0.00 
  91   11:10   0.98   55.5    16    8.1     5    15.9   829.8    0.00 
  91   11:20   0.96   56.8    15    3.1   334    11.6   829.8    0.00 
  91   11:30   0.99   57.0    15    7.6     8    11.8   829.8    0.00 
  91   11:40   1.07   58.3    15    7.0    10    13.5   829.7    0.00 
  91   11:50   1.03   58.4    15    7.6    16    14.2   829.6    0.00 
  91   12:00   1.03   57.9    15    7.4    78    12.5   829.4    0.00 
  91   12:10   1.04   58.9    15    8.0    76    14.5   829.3    0.00 
  91   12:20   0.99   59.0    14    5.2    27    11.2   829.3    0.00 
  91   12:30   0.95   59.7    14    4.7   128    10.3   829.1    0.00 
  91   12:40   0.96   59.5    14    4.7   318     9.0   828.8    0.00 
  91   12:50   0.97   60.8    13    4.3   135     9.9   828.6    0.00 
  91   13:00   0.95   61.0    13    5.0   120    13.1   828.5    0.00 
  91   13:10   0.92   62.3    12    6.7    69    11.0   828.4    0.00 
  91   13:20   0.89   61.1    13    4.9    56    12.9   828.1    0.00 
  91   13:30   0.89   61.2    13    5.9   115    11.2   828.0    0.00 
  91   13:40   0.79   61.0    13    5.6    86    15.4   828.0    0.00 
  91   13:50   0.81   62.0    12    4.4   114     9.2   827.8    0.00 
  91   14:00   0.79   62.5    11    6.8   343    19.5   827.4    0.00 
  91   14:10   0.71   63.1    10   10.4   235    16.9   827.4    0.00 
  91   14:20   0.70   62.8    10    8.4   228    13.4   827.3    0.00 
  91   14:30   0.52   62.2    10   10.0   206    14.9   827.1    0.00 
  91   14:40   0.48   61.5    10    7.7   224    12.3   827.1    0.00 
  91   14:50   0.48   60.9    11   10.2   213    16.1   827.0    0.00 
  91   15:00   0.51   61.1    10    8.3   192    14.9   826.9    0.00 
  91   15:10   0.52   61.3    11    6.0   192    12.9   826.8    0.00 
  91   15:20   0.55   62.0    11    9.2   185    21.0   826.6    0.00 
  91   15:30   0.54   62.2    12   12.5   204    20.1   826.5    0.00 
  91   15:40   0.44   61.5    12    5.1   205    11.5   826.4    0.00 
  91   15:50   0.40   62.5    12    9.2   175    17.2   826.2    0.00 
  91   16:00   0.34   61.9    12   10.1   192    18.2   826.2    0.00 
  91   16:10   0.34   61.2    12   10.8   170    16.0   826.0    0.00 
  91   16:20   0.34   61.4    12    9.7   174    18.6   825.9    0.00 
  91   16:30   0.27   61.3    12    6.0   161    10.9   825.8    0.00 
  91   16:40   0.20   61.0    11   10.8   202    20.1   825.6    0.00 
  91   16:50   0.20   60.7    10   12.9   178    19.4   825.4    0.00 
  91   17:00   0.15   60.4    11   12.6   195    17.5   825.4    0.00 
  91   17:10   0.11   59.9    11    9.1   191    15.6   825.2    0.00 
  91   17:20   0.09   59.4    12    8.8   174    12.9   825.0    0.00 
  91   17:30   0.14   59.6    12    8.7   172    13.5   824.9    0.00 
  91   17:40   0.10   59.6    12    9.4   172    13.9   824.8    0.00 
  91   17:50   0.06   58.9    12    9.7   182    13.2   824.7    0.00 
  91   18:00   0.02   57.9    13    6.9   172    10.5   824.6    0.00 
  91   18:10   0.01   56.9    14    4.9   197     7.7   824.6    0.00 
  91   18:20   0.00   56.3    13    7.1   208    12.2   824.5    0.00 
  91   18:30   0.00   56.7    13    7.0   214    12.1   824.3    0.00 
  91   18:40   0.00   56.4    13    6.8   210    11.5   824.2    0.00 
  91   18:50   0.00   55.8    14    6.7   207    10.4   824.2    0.00 
  91   19:00   0.00   56.1    13    8.3   211    13.6   824.2    0.00 
  91   19:10   0.00   55.9    13    7.2   228    11.8   824.2    0.00 
  91   19:20   0.00   55.5    13    6.8   249    10.3   824.2    0.00 
  91   19:30   0.00   55.3    13    6.6   249     9.0   824.2    0.00 
  91   19:40   0.00   55.1    13    5.4   248     7.7   824.2    0.00 
  91   19:50   0.00   53.4    14    6.1   260     7.5   824.1    0.00 
  91   20:00   0.00   51.9    15    6.2   260     8.3   824.1    0.00 
  91   20:10   0.00   52.6    15    6.4   262     8.1   824.0    0.00 
  91   20:20   0.00   53.3    15    6.2   265     7.5   823.9    0.00 
  91   20:30   0.00   53.8    14    6.8   262     9.2   823.9    0.00 
  91   20:40   0.00   54.6    14    6.0   248    10.5   823.8    0.00 
  91   20:50   0.00   55.2    14    6.1   246     8.9   823.7    0.00 
  91   21:00   0.00   55.2    14    6.7   229    10.5   823.5    0.00 
  91   21:10   0.00   55.3    14    6.4   233     8.4   823.4    0.00 
  91   21:20   0.00   55.4    14    6.5   228    10.4   823.3    0.00 
  91   21:30   0.00   55.0    14    6.4   227    12.6   823.2    0.00 
  91   21:40   0.00   55.1    14    6.2   213     9.9   823.1    0.00 
  91   21:50   0.00   54.7    14    5.4   213     8.6   823.0    0.00 
  91   22:00   0.00   55.0    14    7.0   209    11.1   822.9    0.00 
  91   22:10   0.00   55.2    14    6.9   194    12.1   822.8    0.00 
  91   22:20   0.00   54.5    14    6.1   201     9.2   822.8    0.00 
  91   22:30   0.00   54.6    14    6.9   204    10.6   822.8    0.00 
  91   22:40   0.00   54.6    14    6.7   204    11.5   822.8    0.00 
  91   22:50   0.00   54.3    14    6.5   209     9.7   822.7    0.00 
  91   23:00   0.00   54.8    14    9.9   211    18.3   822.7    0.00 
  91   23:10   0.00   55.1    13   11.2   217    18.0   822.6    0.00 
  91   23:20   0.00   54.9    13    9.5   233    16.1   822.7    0.00 
  91   23:30   0.00   54.6    12    9.8   232    15.6   822.7    0.00 
  91   23:40   0.00   54.4    11   11.0   220    20.5   822.6    0.00 
  91   23:50   0.00   53.9    11    9.1   231    20.5   822.6    0.00 
  92    0:00   0.00   53.3    10    8.4   242    15.2   822.7    0.00 
  92    0:10   0.00   52.9    10    9.6   243    15.4   822.7    0.00 
  92    0:20   0.00   51.7    11   14.9   270    25.9   822.8    0.00 
  92    0:30   0.00   50.9    12   10.8   257    17.5   822.9    0.00 
  92    0:40   0.00   50.1    15    9.5   243    14.3   822.8    0.00 
  92    0:50   0.00   49.9    16   10.0   257    14.8   822.8    0.00 
  92    1:00   0.00   48.3    18    7.6   276     9.8   822.9    0.00 
  92    1:10   0.00   45.9    20    8.4   293    11.6   823.0    0.00 

Return to Badger Spring Valley graphs page.


Western Regional Climate Center,wrcc@dri.edu